Terminal Aerodrome Forecast
Issued by NWS

Home | Current Version | Previous Version | Text Only | Print | Product List | Glossary On
Versions: 1 2 3 4 5 6 7 8 9 10 11 12 13 14 15 16 17 18 19 20 21 22 23 24 25 26 27 28 29 30 31
000
FTUS41 KOKX 292333
TAFGON
TAF
KGON 292333Z 3000/3024 23005KT P6SM SCT250
     FM300800 VRB03KT 4SM BR SCT250
      TEMPO 3009/3011 2SM BR
     FM301200 22006KT 6SM HZ FEW030 SCT250
     FM301400 21010KT P6SM FEW050 SCT250=

USA.gov is the U.S. government's official web portal to all federal, state and local government web resources and services.